sensor_id;sensor_type;location;lat;lon;timestamp;temperature;humidity
55036;DHT22;40936;53.008;6.556;2022-11-20T00:01:15;7.80;99.90
55036;DHT22;40936;53.008;6.556;2022-11-20T00:03:42;4.60;99.90
55036;DHT22;40936;53.008;6.556;2022-11-20T00:06:11;9.00;99.90
55036;DHT22;40936;53.008;6.556;2022-11-20T00:08:37;5.50;99.90
55036;DHT22;40936;53.008;6.556;2022-11-20T00:11:07;5.70;99.90
55036;DHT22;40936;53.008;6.556;2022-11-20T00:13:33;5.90;99.90
55036;DHT22;40936;53.008;6.556;2022-11-20T00:16:00;5.90;99.90
55036;DHT22;40936;53.008;6.556;2022-11-20T00:18:27;6.10;99.90
55036;DHT22;40936;53.008;6.556;2022-11-20T00:20:53;7.70;99.90
55036;DHT22;40936;53.008;6.556;2022-11-20T00:23:20;9.00;99.90
55036;DHT22;40936;53.008;6.556;2022-11-20T00:25:45;7.40;99.90
55036;DHT22;40936;53.008;6.556;2022-11-20T00:28:11;6.10;99.90
55036;DHT22;40936;53.008;6.556;2022-11-20T00:30:37;6.40;99.90
55036;DHT22;40936;53.008;6.556;2022-11-20T00:33:02;8.30;99.90
55036;DHT22;40936;53.008;6.556;2022-11-20T00:35:28;7.10;99.90
55036;DHT22;40936;53.008;6.556;2022-11-20T00:37:54;8.60;99.90
55036;DHT22;40936;53.008;6.556;2022-11-20T00:40:19;7.70;99.90
55036;DHT22;40936;53.008;6.556;2022-11-20T00:42:45;7.90;99.90
55036;DHT22;40936;53.008;6.556;2022-11-20T00:45:11;8.70;99.90
55036;DHT22;40936;53.008;6.556;2022-11-20T00:47:36;5.50;99.90
55036;DHT22;40936;53.008;6.556;2022-11-20T00:50:02;7.80;99.90
55036;DHT22;40936;53.008;6.556;2022-11-20T00:52:28;6.70;99.90
55036;DHT22;40936;53.008;6.556;2022-11-20T00:54:54;7.30;99.90
55036;DHT22;40936;53.008;6.556;2022-11-20T00:57:19;5.60;99.90
55036;DHT22;40936;53.008;6.556;2022-11-20T00:59:45;7.60;99.90
55036;DHT22;40936;53.008;6.556;2022-11-20T01:02:10;8.20;99.90
55036;DHT22;40936;53.008;6.556;2022-11-20T01:04:36;6.40;99.90
55036;DHT22;40936;53.008;6.556;2022-11-20T01:07:02;6.50;99.90
55036;DHT22;40936;53.008;6.556;2022-11-20T01:09:27;7.10;99.90
55036;DHT22;40936;53.008;6.556;2022-11-20T01:11:53;6.60;99.90
55036;DHT22;40936;53.008;6.556;2022-11-20T01:14:19;6.40;99.90
55036;DHT22;40936;53.008;6.556;2022-11-20T01:16:47;7.30;99.90
55036;DHT22;40936;53.008;6.556;2022-11-20T01:19:16;6.50;99.90
55036;DHT22;40936;53.008;6.556;2022-11-20T01:21:44;4.60;99.90
55036;DHT22;40936;53.008;6.556;2022-11-20T01:24:12;7.00;99.90
55036;DHT22;40936;53.008;6.556;2022-11-20T01:26:41;6.10;99.90
55036;DHT22;40936;53.008;6.556;2022-11-20T01:29:12;8.70;99.90
55036;DHT22;40936;53.008;6.556;2022-11-20T01:31:38;8.70;99.90
55036;DHT22;40936;53.008;6.556;2022-11-20T01:34:06;7.20;99.90
55036;DHT22;40936;53.008;6.556;2022-11-20T01:36:33;7.10;99.90
55036;DHT22;40936;53.008;6.556;2022-11-20T01:39:04;8.60;99.90
55036;DHT22;40936;53.008;6.556;2022-11-20T01:41:31;6.20;99.90
55036;DHT22;40936;53.008;6.556;2022-11-20T01:44:19;7.40;99.90
55036;DHT22;40936;53.008;6.556;2022-11-20T01:46:57;6.80;99.90
55036;DHT22;40936;53.008;6.556;2022-11-20T01:49:28;7.00;99.90
55036;DHT22;40936;53.008;6.556;2022-11-20T01:52:07;8.90;99.90
55036;DHT22;40936;53.008;6.556;2022-11-20T01:55:05;7.10;99.90
55036;DHT22;40936;53.008;6.556;2022-11-20T01:57:33;7.10;99.90
55036;DHT22;40936;53.008;6.556;2022-11-20T02:00:04;7.10;99.90
55036;DHT22;40936;53.008;6.556;2022-11-20T02:02:31;9.00;99.90
55036;DHT22;40936;53.008;6.556;2022-11-20T02:05:01;7.60;99.90
55036;DHT22;40936;53.008;6.556;2022-11-20T02:07:28;7.20;99.90
55036;DHT22;40936;53.008;6.556;2022-11-20T02:12:20;7.10;99.90
55036;DHT22;40936;53.008;6.556;2022-11-20T02:15:05;8.90;99.90
55036;DHT22;40936;53.008;6.556;2022-11-20T02:17:30;7.20;99.90
55036;DHT22;40936;53.008;6.556;2022-11-20T02:19:56;5.40;99.90
55036;DHT22;40936;53.008;6.556;2022-11-20T02:22:30;8.60;99.90
55036;DHT22;40936;53.008;6.556;2022-11-20T02:25:00;7.90;99.90
55036;DHT22;40936;53.008;6.556;2022-11-20T02:27:27;7.00;99.90
55036;DHT22;40936;53.008;6.556;2022-11-20T02:29:58;7.10;99.90
55036;DHT22;40936;53.008;6.556;2022-11-20T02:32:27;7.20;99.90
55036;DHT22;40936;53.008;6.556;2022-11-20T02:37:20;7.30;99.90
55036;DHT22;40936;53.008;6.556;2022-11-20T02:39:48;8.30;99.90
55036;DHT22;40936;53.008;6.556;2022-11-20T02:42:14;9.00;99.90
55036;DHT22;40936;53.008;6.556;2022-11-20T02:44:40;7.30;99.90
55036;DHT22;40936;53.008;6.556;2022-11-20T02:47:06;8.70;99.90
55036;DHT22;40936;53.008;6.556;2022-11-20T02:49:31;9.60;99.90
55036;DHT22;40936;53.008;6.556;2022-11-20T02:51:57;6.50;99.90
55036;DHT22;40936;53.008;6.556;2022-11-20T02:54:23;7.50;99.90
55036;DHT22;40936;53.008;6.556;2022-11-20T02:56:49;8.60;99.90
55036;DHT22;40936;53.008;6.556;2022-11-20T02:59:15;9.70;99.90
55036;DHT22;40936;53.008;6.556;2022-11-20T03:01:40;7.20;99.90
55036;DHT22;40936;53.008;6.556;2022-11-20T03:04:06;7.50;99.90
55036;DHT22;40936;53.008;6.556;2022-11-20T03:06:32;8.80;99.90
55036;DHT22;40936;53.008;6.556;2022-11-20T03:08:57;6.40;99.90
55036;DHT22;40936;53.008;6.556;2022-11-20T03:11:23;7.60;99.90
55036;DHT22;40936;53.008;6.556;2022-11-20T03:16:18;7.80;99.90
55036;DHT22;40936;53.008;6.556;2022-11-20T03:18:44;10.20;99.90
55036;DHT22;40936;53.008;6.556;2022-11-20T03:21:11;10.20;99.90
55036;DHT22;40936;53.008;6.556;2022-11-20T03:23:38;9.60;99.90
55036;DHT22;40936;53.008;6.556;2022-11-20T03:26:09;8.70;99.90
55036;DHT22;40936;53.008;6.556;2022-11-20T03:28:35;10.30;99.90
55036;DHT22;40936;53.008;6.556;2022-11-20T03:31:10;9.00;99.90
55036;DHT22;40936;53.008;6.556;2022-11-20T03:33:36;9.00;99.90
55036;DHT22;40936;53.008;6.556;2022-11-20T03:36:07;7.90;99.90
55036;DHT22;40936;53.008;6.556;2022-11-20T03:41:04;10.60;99.90
55036;DHT22;40936;53.008;6.556;2022-11-20T03:43:31;8.20;99.90
55036;DHT22;40936;53.008;6.556;2022-11-20T03:45:57;8.10;99.90
55036;DHT22;40936;53.008;6.556;2022-11-20T03:50:49;8.40;99.90
55036;DHT22;40936;53.008;6.556;2022-11-20T03:53:15;10.40;99.90
55036;DHT22;40936;53.008;6.556;2022-11-20T03:55:41;10.20;99.90
55036;DHT22;40936;53.008;6.556;2022-11-20T03:58:07;8.00;99.90
55036;DHT22;40936;53.008;6.556;2022-11-20T04:00:33;7.10;99.90
55036;DHT22;40936;53.008;6.556;2022-11-20T04:03:00;8.20;99.90
55036;DHT22;40936;53.008;6.556;2022-11-20T04:05:26;8.40;99.90
55036;DHT22;40936;53.008;6.556;2022-11-20T04:07:52;9.50;99.90
55036;DHT22;40936;53.008;6.556;2022-11-20T04:10:18;6.60;99.90
55036;DHT22;40936;53.008;6.556;2022-11-20T04:12:43;10.30;99.90
55036;DHT22;40936;53.008;6.556;2022-11-20T04:15:09;9.50;99.90
55036;DHT22;40936;53.008;6.556;2022-11-20T04:17:35;8.10;99.90
55036;DHT22;40936;53.008;6.556;2022-11-20T04:22:27;8.40;99.90
55036;DHT22;40936;53.008;6.556;2022-11-20T04:24:53;8.40;99.90
55036;DHT22;40936;53.008;6.556;2022-11-20T04:27:18;10.10;99.90
55036;DHT22;40936;53.008;6.556;2022-11-20T04:29:44;10.20;99.90
55036;DHT22;40936;53.008;6.556;2022-11-20T04:32:09;8.70;99.90
55036;DHT22;40936;53.008;6.556;2022-11-20T04:34:35;9.70;99.90
55036;DHT22;40936;53.008;6.556;2022-11-20T04:37:01;8.20;99.90
55036;DHT22;40936;53.008;6.556;2022-11-20T04:39:27;9.80;99.90
55036;DHT22;40936;53.008;6.556;2022-11-20T04:41:52;8.40;99.90
55036;DHT22;40936;53.008;6.556;2022-11-20T04:44:38;9.80;99.90
55036;DHT22;40936;53.008;6.556;2022-11-20T04:47:04;8.80;99.90
55036;DHT22;40936;53.008;6.556;2022-11-20T04:49:29;8.40;99.90
55036;DHT22;40936;53.008;6.556;2022-11-20T04:51:57;9.20;99.90
55036;DHT22;40936;53.008;6.556;2022-11-20T04:54:23;8.70;99.90
55036;DHT22;40936;53.008;6.556;2022-11-20T04:56:48;8.10;99.90
55036;DHT22;40936;53.008;6.556;2022-11-20T04:59:14;7.60;99.90
55036;DHT22;40936;53.008;6.556;2022-11-20T05:01:40;9.20;99.90
55036;DHT22;40936;53.008;6.556;2022-11-20T05:04:05;7.90;99.90
55036;DHT22;40936;53.008;6.556;2022-11-20T05:06:32;9.60;99.90
55036;DHT22;40936;53.008;6.556;2022-11-20T05:08:58;10.30;99.90
55036;DHT22;40936;53.008;6.556;2022-11-20T05:11:24;9.60;99.90
55036;DHT22;40936;53.008;6.556;2022-11-20T05:13:50;8.40;99.90
55036;DHT22;40936;53.008;6.556;2022-11-20T05:16:22;8.20;99.90
55036;DHT22;40936;53.008;6.556;2022-11-20T05:18:48;10.30;99.90
55036;DHT22;40936;53.008;6.556;2022-11-20T05:21:15;7.50;99.90
55036;DHT22;40936;53.008;6.556;2022-11-20T05:23:41;7.90;99.90
55036;DHT22;40936;53.008;6.556;2022-11-20T05:26:16;6.50;99.90
55036;DHT22;40936;53.008;6.556;2022-11-20T05:28:42;10.70;99.90
55036;DHT22;40936;53.008;6.556;2022-11-20T05:31:13;9.10;99.90
55036;DHT22;40936;53.008;6.556;2022-11-20T05:33:43;10.70;99.90
55036;DHT22;40936;53.008;6.556;2022-11-20T05:36:10;7.10;99.90
55036;DHT22;40936;53.008;6.556;2022-11-20T05:38:36;8.20;99.90
55036;DHT22;40936;53.008;6.556;2022-11-20T05:41:11;10.40;99.90
55036;DHT22;40936;53.008;6.556;2022-11-20T05:43:38;10.30;99.90
55036;DHT22;40936;53.008;6.556;2022-11-20T05:46:06;8.30;99.90
55036;DHT22;40936;53.008;6.556;2022-11-20T05:48:32;8.50;99.90
55036;DHT22;40936;53.008;6.556;2022-11-20T05:50:59;8.30;99.90
55036;DHT22;40936;53.008;6.556;2022-11-20T05:53:26;8.30;99.90
55036;DHT22;40936;53.008;6.556;2022-11-20T05:56:03;8.30;99.90
55036;DHT22;40936;53.008;6.556;2022-11-20T05:58:30;8.20;99.90
55036;DHT22;40936;53.008;6.556;2022-11-20T06:01:06;8.00;99.90
55036;DHT22;40936;53.008;6.556;2022-11-20T06:06:00;8.30;99.90
55036;DHT22;40936;53.008;6.556;2022-11-20T06:08:26;10.30;99.90
55036;DHT22;40936;53.008;6.556;2022-11-20T06:10:51;9.10;99.90
55036;DHT22;40936;53.008;6.556;2022-11-20T06:13:17;8.40;99.90
55036;DHT22;40936;53.008;6.556;2022-11-20T06:15:51;8.20;99.90
55036;DHT22;40936;53.008;6.556;2022-11-20T06:18:17;6.90;99.90
55036;DHT22;40936;53.008;6.556;2022-11-20T06:20:43;9.70;99.90
55036;DHT22;40936;53.008;6.556;2022-11-20T06:23:09;10.90;99.90
55036;DHT22;40936;53.008;6.556;2022-11-20T06:25:41;10.00;99.90
55036;DHT22;40936;53.008;6.556;2022-11-20T06:28:07;10.50;99.90
55036;DHT22;40936;53.008;6.556;2022-11-20T06:30:33;9.80;99.90
55036;DHT22;40936;53.008;6.556;2022-11-20T06:32:59;9.10;99.90
55036;DHT22;40936;53.008;6.556;2022-11-20T06:35:24;8.80;99.90
55036;DHT22;40936;53.008;6.556;2022-11-20T06:37:50;7.50;99.90
55036;DHT22;40936;53.008;6.556;2022-11-20T06:40:16;8.10;99.90
55036;DHT22;40936;53.008;6.556;2022-11-20T06:42:41;8.20;99.90
55036;DHT22;40936;53.008;6.556;2022-11-20T06:45:08;7.00;99.90
55036;DHT22;40936;53.008;6.556;2022-11-20T06:47:34;7.50;99.90
55036;DHT22;40936;53.008;6.556;2022-11-20T06:49:59;10.50;99.90
55036;DHT22;40936;53.008;6.556;2022-11-20T06:52:25;9.20;99.90
55036;DHT22;40936;53.008;6.556;2022-11-20T06:57:17;8.20;99.90
55036;DHT22;40936;53.008;6.556;2022-11-20T06:59:42;8.30;99.90
55036;DHT22;40936;53.008;6.556;2022-11-20T07:02:11;10.90;99.90
55036;DHT22;40936;53.008;6.556;2022-11-20T07:07:04;8.40;99.90
55036;DHT22;40936;53.008;6.556;2022-11-20T07:09:29;7.50;99.90
55036;DHT22;40936;53.008;6.556;2022-11-20T07:11:55;9.10;99.90
55036;DHT22;40936;53.008;6.556;2022-11-20T07:16:47;8.40;99.90
55036;DHT22;40936;53.008;6.556;2022-11-20T07:19:12;7.50;99.90
55036;DHT22;40936;53.008;6.556;2022-11-20T07:21:38;10.00;99.90
55036;DHT22;40936;53.008;6.556;2022-11-20T07:24:04;8.40;99.90
55036;DHT22;40936;53.008;6.556;2022-11-20T07:26:29;8.60;99.90
55036;DHT22;40936;53.008;6.556;2022-11-20T07:28:55;8.30;99.90
55036;DHT22;40936;53.008;6.556;2022-11-20T07:31:21;8.60;99.90
55036;DHT22;40936;53.008;6.556;2022-11-20T07:33:46;8.40;99.90
55036;DHT22;40936;53.008;6.556;2022-11-20T07:36:12;7.70;99.90
55036;DHT22;40936;53.008;6.556;2022-11-20T07:38:38;9.20;99.90
55036;DHT22;40936;53.008;6.556;2022-11-20T07:41:04;9.70;99.90
55036;DHT22;40936;53.008;6.556;2022-11-20T07:43:30;8.20;99.90
55036;DHT22;40936;53.008;6.556;2022-11-20T07:45:56;7.40;99.90
55036;DHT22;40936;53.008;6.556;2022-11-20T07:48:23;8.10;99.90
55036;DHT22;40936;53.008;6.556;2022-11-20T07:53:15;8.60;99.90
55036;DHT22;40936;53.008;6.556;2022-11-20T07:55:46;9.60;99.90
55036;DHT22;40936;53.008;6.556;2022-11-20T07:58:12;9.70;99.90
55036;DHT22;40936;53.008;6.556;2022-11-20T08:00:38;10.60;99.90
55036;DHT22;40936;53.008;6.556;2022-11-20T08:03:04;10.80;99.90
55036;DHT22;40936;53.008;6.556;2022-11-20T08:05:30;8.20;99.90
55036;DHT22;40936;53.008;6.556;2022-11-20T08:07:55;8.50;99.90
55036;DHT22;40936;53.008;6.556;2022-11-20T08:10:21;8.20;99.90
55036;DHT22;40936;53.008;6.556;2022-11-20T08:12:48;9.70;99.90
55036;DHT22;40936;53.008;6.556;2022-11-20T08:15:34;8.30;99.90
55036;DHT22;40936;53.008;6.556;2022-11-20T08:18:08;8.60;99.90
55036;DHT22;40936;53.008;6.556;2022-11-20T08:20:34;8.60;99.90
55036;DHT22;40936;53.008;6.556;2022-11-20T08:23:04;11.30;99.90
55036;DHT22;40936;53.008;6.556;2022-11-20T08:25:32;9.00;99.90
55036;DHT22;40936;53.008;6.556;2022-11-20T08:27:59;8.00;99.90
55036;DHT22;40936;53.008;6.556;2022-11-20T08:30:25;11.10;99.90
55036;DHT22;40936;53.008;6.556;2022-11-20T08:32:51;10.00;99.90
55036;DHT22;40936;53.008;6.556;2022-11-20T08:35:17;9.40;99.90
55036;DHT22;40936;53.008;6.556;2022-11-20T08:37:46;8.40;99.90
55036;DHT22;40936;53.008;6.556;2022-11-20T08:40:12;10.70;99.90
55036;DHT22;40936;53.008;6.556;2022-11-20T08:42:46;8.00;99.90
55036;DHT22;40936;53.008;6.556;2022-11-20T08:45:12;9.70;99.90
55036;DHT22;40936;53.008;6.556;2022-11-20T08:47:37;12.30;99.90
55036;DHT22;40936;53.008;6.556;2022-11-20T08:50:03;10.00;99.90
55036;DHT22;40936;53.008;6.556;2022-11-20T08:52:29;9.10;99.90
55036;DHT22;40936;53.008;6.556;2022-11-20T08:54:54;11.20;99.90
55036;DHT22;40936;53.008;6.556;2022-11-20T08:57:20;10.60;99.90
55036;DHT22;40936;53.008;6.556;2022-11-20T08:59:45;9.40;99.90
55036;DHT22;40936;53.008;6.556;2022-11-20T09:02:11;9.40;99.90
55036;DHT22;40936;53.008;6.556;2022-11-20T09:04:37;9.30;99.90
55036;DHT22;40936;53.008;6.556;2022-11-20T09:07:03;8.00;99.90
55036;DHT22;40936;53.008;6.556;2022-11-20T09:09:28;9.30;99.90
55036;DHT22;40936;53.008;6.556;2022-11-20T09:11:54;9.40;99.90
55036;DHT22;40936;53.008;6.556;2022-11-20T09:14:20;9.60;99.90
55036;DHT22;40936;53.008;6.556;2022-11-20T09:16:46;8.00;99.90
55036;DHT22;40936;53.008;6.556;2022-11-20T09:19:12;9.60;99.90
55036;DHT22;40936;53.008;6.556;2022-11-20T09:21:38;8.60;99.90
55036;DHT22;40936;53.008;6.556;2022-11-20T09:24:05;10.10;99.90
55036;DHT22;40936;53.008;6.556;2022-11-20T09:26:30;9.50;99.90
55036;DHT22;40936;53.008;6.556;2022-11-20T09:28:56;10.40;99.90
55036;DHT22;40936;53.008;6.556;2022-11-20T09:31:23;11.30;99.90
55036;DHT22;40936;53.008;6.556;2022-11-20T09:33:49;9.30;99.90
55036;DHT22;40936;53.008;6.556;2022-11-20T09:36:15;9.80;99.90
55036;DHT22;40936;53.008;6.556;2022-11-20T09:38:42;10.10;99.90
55036;DHT22;40936;53.008;6.556;2022-11-20T09:41:25;9.40;99.90
55036;DHT22;40936;53.008;6.556;2022-11-20T09:46:45;9.40;99.90
55036;DHT22;40936;53.008;6.556;2022-11-20T09:49:24;9.50;99.90
55036;DHT22;40936;53.008;6.556;2022-11-20T09:54:35;9.30;99.90
55036;DHT22;40936;53.008;6.556;2022-11-20T09:57:08;10.80;99.90
55036;DHT22;40936;53.008;6.556;2022-11-20T09:59:41;9.80;99.90
55036;DHT22;40936;53.008;6.556;2022-11-20T10:02:22;11.00;99.90
55036;DHT22;40936;53.008;6.556;2022-11-20T10:05:19;11.80;99.90
55036;DHT22;40936;53.008;6.556;2022-11-20T10:08:18;9.90;99.90
55036;DHT22;40936;53.008;6.556;2022-11-20T10:10:53;9.90;99.90
55036;DHT22;40936;53.008;6.556;2022-11-20T10:29:37;10.30;99.90
55036;DHT22;40936;53.008;6.556;2022-11-20T10:32:31;10.30;99.90
55036;DHT22;40936;53.008;6.556;2022-11-20T10:35:07;11.50;99.90
55036;DHT22;40936;53.008;6.556;2022-11-20T10:37:44;11.20;99.90
55036;DHT22;40936;53.008;6.556;2022-11-20T10:40:48;10.40;99.90
55036;DHT22;40936;53.008;6.556;2022-11-20T10:43:28;10.30;99.90
55036;DHT22;40936;53.008;6.556;2022-11-20T10:46:01;10.50;99.90
55036;DHT22;40936;53.008;6.556;2022-11-20T10:48:31;10.40;99.90
55036;DHT22;40936;53.008;6.556;2022-11-20T10:57:20;10.30;99.90
55036;DHT22;40936;53.008;6.556;2022-11-20T11:00:03;9.70;99.90
55036;DHT22;40936;53.008;6.556;2022-11-20T11:02:39;10.50;99.90
55036;DHT22;40936;53.008;6.556;2022-11-20T11:07:42;10.60;99.90
55036;DHT22;40936;53.008;6.556;2022-11-20T11:10:19;12.60;99.90
55036;DHT22;40936;53.008;6.556;2022-11-20T11:12:47;10.70;99.90
55036;DHT22;40936;53.008;6.556;2022-11-20T11:15:37;10.70;99.90
55036;DHT22;40936;53.008;6.556;2022-11-20T11:18:03;10.70;99.90
55036;DHT22;40936;53.008;6.556;2022-11-20T11:20:29;10.80;99.90
55036;DHT22;40936;53.008;6.556;2022-11-20T11:22:57;10.80;99.90
55036;DHT22;40936;53.008;6.556;2022-11-20T11:25:24;10.90;99.90
55036;DHT22;40936;53.008;6.556;2022-11-20T11:27:52;11.20;99.90
55036;DHT22;40936;53.008;6.556;2022-11-20T11:30:19;11.10;99.90
55036;DHT22;40936;53.008;6.556;2022-11-20T11:32:46;11.50;99.90
55036;DHT22;40936;53.008;6.556;2022-11-20T11:35:26;11.20;99.90
55036;DHT22;40936;53.008;6.556;2022-11-20T11:38:00;10.60;99.90
55036;DHT22;40936;53.008;6.556;2022-11-20T11:40:28;11.20;99.90
55036;DHT22;40936;53.008;6.556;2022-11-20T11:43:05;11.20;99.90
55036;DHT22;40936;53.008;6.556;2022-11-20T11:45:53;10.80;99.90
55036;DHT22;40936;53.008;6.556;2022-11-20T11:48:20;10.80;99.90
55036;DHT22;40936;53.008;6.556;2022-11-20T11:50:50;10.80;99.90
55036;DHT22;40936;53.008;6.556;2022-11-20T11:53:19;10.80;99.90
55036;DHT22;40936;53.008;6.556;2022-11-20T11:56:09;11.30;99.90
55036;DHT22;40936;53.008;6.556;2022-11-20T12:06:32;11.00;99.90
55036;DHT22;40936;53.008;6.556;2022-11-20T12:09:03;8.70;99.90
55036;DHT22;40936;53.008;6.556;2022-11-20T12:11:43;10.90;99.90
55036;DHT22;40936;53.008;6.556;2022-11-20T12:14:17;11.90;99.90
55036;DHT22;40936;53.008;6.556;2022-11-20T12:16:45;13.50;99.90
55036;DHT22;40936;53.008;6.556;2022-11-20T12:19:13;11.20;99.90
55036;DHT22;40936;53.008;6.556;2022-11-20T12:40:43;10.70;99.90
55036;DHT22;40936;53.008;6.556;2022-11-20T12:43:21;10.90;99.90
55036;DHT22;40936;53.008;6.556;2022-11-20T12:46:24;10.90;99.90
55036;DHT22;40936;53.008;6.556;2022-11-20T13:07:58;11.10;99.90
55036;DHT22;40936;53.008;6.556;2022-11-20T13:10:44;11.40;99.90
55036;DHT22;40936;53.008;6.556;2022-11-20T13:16:06;11.40;99.90
55036;DHT22;40936;53.008;6.556;2022-11-20T13:18:38;11.30;99.90
55036;DHT22;40936;53.008;6.556;2022-11-20T13:29:36;11.20;99.90
55036;DHT22;40936;53.008;6.556;2022-11-20T13:32:04;11.50;99.90
55036;DHT22;40936;53.008;6.556;2022-11-20T13:34:31;11.20;99.90
55036;DHT22;40936;53.008;6.556;2022-11-20T13:36:59;11.20;99.90
55036;DHT22;40936;53.008;6.556;2022-11-20T13:39:34;12.80;99.90
55036;DHT22;40936;53.008;6.556;2022-11-20T13:42:23;10.70;99.90
55036;DHT22;40936;53.008;6.556;2022-11-20T13:45:01;10.20;99.90
55036;DHT22;40936;53.008;6.556;2022-11-20T13:47:29;10.80;99.90
55036;DHT22;40936;53.008;6.556;2022-11-20T13:49:57;10.60;99.90
55036;DHT22;40936;53.008;6.556;2022-11-20T14:00:28;12.30;99.90
55036;DHT22;40936;53.008;6.556;2022-11-20T14:03:15;10.60;99.90
55036;DHT22;40936;53.008;6.556;2022-11-20T14:05:59;12.70;99.90
55036;DHT22;40936;53.008;6.556;2022-11-20T14:08:33;10.60;99.90
55036;DHT22;40936;53.008;6.556;2022-11-20T14:11:04;10.70;99.90
55036;DHT22;40936;53.008;6.556;2022-11-20T14:13:30;11.50;99.90
55036;DHT22;40936;53.008;6.556;2022-11-20T14:15:58;11.40;99.90
55036;DHT22;40936;53.008;6.556;2022-11-20T14:18:26;11.00;99.90
55036;DHT22;40936;53.008;6.556;2022-11-20T14:20:52;12.60;99.90
55036;DHT22;40936;53.008;6.556;2022-11-20T14:23:27;9.20;99.90
55036;DHT22;40936;53.008;6.556;2022-11-20T14:25:53;10.90;99.90
55036;DHT22;40936;53.008;6.556;2022-11-20T14:28:27;10.40;99.90
55036;DHT22;40936;53.008;6.556;2022-11-20T14:30:53;10.50;99.90
55036;DHT22;40936;53.008;6.556;2022-11-20T14:33:19;8.60;99.90
55036;DHT22;40936;53.008;6.556;2022-11-20T14:35:51;10.50;99.90
55036;DHT22;40936;53.008;6.556;2022-11-20T14:38:21;8.30;99.90
55036;DHT22;40936;53.008;6.556;2022-11-20T14:40:47;10.60;99.90
55036;DHT22;40936;53.008;6.556;2022-11-20T14:43:17;11.00;99.90
55036;DHT22;40936;53.008;6.556;2022-11-20T14:45:46;10.10;99.90
55036;DHT22;40936;53.008;6.556;2022-11-20T14:48:13;11.30;99.90
55036;DHT22;40936;53.008;6.556;2022-11-20T14:50:40;10.10;99.90
55036;DHT22;40936;53.008;6.556;2022-11-20T14:53:05;10.20;99.90
55036;DHT22;40936;53.008;6.556;2022-11-20T14:55:36;10.80;99.90
55036;DHT22;40936;53.008;6.556;2022-11-20T14:58:21;10.30;99.90
55036;DHT22;40936;53.008;6.556;2022-11-20T15:00:58;10.00;99.90
55036;DHT22;40936;53.008;6.556;2022-11-20T15:03:32;9.40;99.90
55036;DHT22;40936;53.008;6.556;2022-11-20T15:05:58;10.10;99.90
55036;DHT22;40936;53.008;6.556;2022-11-20T15:08:24;9.90;99.90
55036;DHT22;40936;53.008;6.556;2022-11-20T15:10:51;7.10;99.90
55036;DHT22;40936;53.008;6.556;2022-11-20T15:13:29;8.30;99.90
55036;DHT22;40936;53.008;6.556;2022-11-20T15:15:57;9.70;99.90
55036;DHT22;40936;53.008;6.556;2022-11-20T15:18:36;9.80;99.90
55036;DHT22;40936;53.008;6.556;2022-11-20T15:21:06;9.80;99.90
55036;DHT22;40936;53.008;6.556;2022-11-20T15:23:35;8.70;99.90
55036;DHT22;40936;53.008;6.556;2022-11-20T15:26:01;10.30;99.90
55036;DHT22;40936;53.008;6.556;2022-11-20T15:28:41;9.00;99.90
55036;DHT22;40936;53.008;6.556;2022-11-20T15:31:12;9.70;99.90
55036;DHT22;40936;53.008;6.556;2022-11-20T15:33:37;9.40;99.90
55036;DHT22;40936;53.008;6.556;2022-11-20T15:36:03;10.10;99.90
55036;DHT22;40936;53.008;6.556;2022-11-20T15:38:29;9.50;99.90
55036;DHT22;40936;53.008;6.556;2022-11-20T15:40:55;10.10;99.90
55036;DHT22;40936;53.008;6.556;2022-11-20T15:45:58;9.70;99.90
55036;DHT22;40936;53.008;6.556;2022-11-20T15:48:29;9.80;99.90
55036;DHT22;40936;53.008;6.556;2022-11-20T15:53:40;9.80;99.90
55036;DHT22;40936;53.008;6.556;2022-11-20T15:56:11;10.00;99.90
55036;DHT22;40936;53.008;6.556;2022-11-20T15:58:37;9.80;99.90
55036;DHT22;40936;53.008;6.556;2022-11-20T16:01:03;9.90;99.90
55036;DHT22;40936;53.008;6.556;2022-11-20T16:03:29;10.30;99.90
55036;DHT22;40936;53.008;6.556;2022-11-20T16:05:55;10.20;99.90
55036;DHT22;40936;53.008;6.556;2022-11-20T16:10:47;9.90;99.90
55036;DHT22;40936;53.008;6.556;2022-11-20T16:13:14;8.40;99.90
55036;DHT22;40936;53.008;6.556;2022-11-20T16:16:03;9.80;99.90
55036;DHT22;40936;53.008;6.556;2022-11-20T16:18:30;9.30;99.90
55036;DHT22;40936;53.008;6.556;2022-11-20T16:20:56;9.80;99.90
55036;DHT22;40936;53.008;6.556;2022-11-20T16:23:22;10.50;99.90
55036;DHT22;40936;53.008;6.556;2022-11-20T16:25:48;10.90;99.90
55036;DHT22;40936;53.008;6.556;2022-11-20T16:33:11;9.70;99.90
55036;DHT22;40936;53.008;6.556;2022-11-20T16:35:37;8.70;99.90
55036;DHT22;40936;53.008;6.556;2022-11-20T16:38:03;10.40;99.90
55036;DHT22;40936;53.008;6.556;2022-11-20T16:40:29;8.40;99.90
55036;DHT22;40936;53.008;6.556;2022-11-20T16:42:55;9.90;99.90
55036;DHT22;40936;53.008;6.556;2022-11-20T16:45:20;9.70;99.90
55036;DHT22;40936;53.008;6.556;2022-11-20T16:47:46;9.20;99.90
55036;DHT22;40936;53.008;6.556;2022-11-20T16:50:12;10.10;99.90
55036;DHT22;40936;53.008;6.556;2022-11-20T16:52:38;8.50;99.90
55036;DHT22;40936;53.008;6.556;2022-11-20T16:55:04;9.70;99.90
55036;DHT22;40936;53.008;6.556;2022-11-20T16:57:31;12.30;99.90
55036;DHT22;40936;53.008;6.556;2022-11-20T17:00:00;11.90;99.90
55036;DHT22;40936;53.008;6.556;2022-11-20T17:02:26;9.80;99.90
55036;DHT22;40936;53.008;6.556;2022-11-20T17:04:52;8.50;99.90
55036;DHT22;40936;53.008;6.556;2022-11-20T17:07:18;9.70;99.90
55036;DHT22;40936;53.008;6.556;2022-11-20T17:09:43;9.60;99.90
55036;DHT22;40936;53.008;6.556;2022-11-20T17:12:09;8.60;99.90
55036;DHT22;40936;53.008;6.556;2022-11-20T17:14:35;8.70;99.90
55036;DHT22;40936;53.008;6.556;2022-11-20T17:17:00;9.30;99.90
55036;DHT22;40936;53.008;6.556;2022-11-20T17:19:26;11.20;99.90
55036;DHT22;40936;53.008;6.556;2022-11-20T17:21:52;10.00;99.90
55036;DHT22;40936;53.008;6.556;2022-11-20T17:24:17;9.60;99.90
55036;DHT22;40936;53.008;6.556;2022-11-20T17:26:44;9.30;99.90
55036;DHT22;40936;53.008;6.556;2022-11-20T17:29:13;9.40;99.90
55036;DHT22;40936;53.008;6.556;2022-11-20T17:31:39;9.50;99.90
55036;DHT22;40936;53.008;6.556;2022-11-20T17:34:07;11.80;99.90
55036;DHT22;40936;53.008;6.556;2022-11-20T17:36:33;9.90;99.90
55036;DHT22;40936;53.008;6.556;2022-11-20T17:38:58;9.50;99.90
55036;DHT22;40936;53.008;6.556;2022-11-20T17:41:26;11.40;99.90
55036;DHT22;40936;53.008;6.556;2022-11-20T17:43:54;12.10;99.90
55036;DHT22;40936;53.008;6.556;2022-11-20T17:46:22;10.70;99.90
55036;DHT22;40936;53.008;6.556;2022-11-20T17:48:48;9.10;99.90
55036;DHT22;40936;53.008;6.556;2022-11-20T17:51:16;9.40;99.90
55036;DHT22;40936;53.008;6.556;2022-11-20T17:53:43;9.20;99.90
55036;DHT22;40936;53.008;6.556;2022-11-20T17:56:10;9.10;99.90
55036;DHT22;40936;53.008;6.556;2022-11-20T17:58:54;10.50;99.90
55036;DHT22;40936;53.008;6.556;2022-11-20T18:01:20;8.70;99.90
55036;DHT22;40936;53.008;6.556;2022-11-20T18:03:46;12.30;99.90
55036;DHT22;40936;53.008;6.556;2022-11-20T18:06:14;10.20;99.90